Time;durP1;ratioP1;P1;durP2;ratioP2;P2;SDS_P1;SDS_P2;PMS_P1;PMS_P2;Temp;Humidity;BMP_temperature;BMP_pressure;BME280_temperature;BME280_humidity;BME280_pressure;Samples;Min_cycle;Max_cycle;Signal;HPM_P1;HPM_P2
2023/10/24 00:02:08;;;;;;;619.28;558.97;;;;;;;18.49;100.00;97734.13;5093808;28;20107;-46
2023/10/24 00:04:34;;;;;;;919.95;774.03;;;;;;;18.30;100.00;97718.03;5092200;28;20063;-46
2023/10/24 00:06:59;;;;;;;923.97;786.80;;;;;;;18.63;100.00;97697.09;5092089;28;20059;-46
2023/10/24 00:09:25;;;;;;;593.72;532.75;;;;;;;19.12;100.00;97714.03;5092016;28;20020;-46
2023/10/24 00:11:51;;;;;;;591.72;526.50;;;;;;;18.85;100.00;97723.28;5092933;28;20050;-46
2023/10/24 00:14:16;;;;;;;396.77;353.73;;;;;;;18.43;100.00;97707.84;5091985;28;20024;-46
2023/10/24 00:16:42;;;;;;;943.83;824.67;;;;;;;18.15;100.00;97681.72;5093179;28;20077;-46
2023/10/24 00:19:08;;;;;;;316.48;286.08;;;;;;;18.50;100.00;97698.50;5091893;28;20370;-46
2023/10/24 00:21:33;;;;;;;301.77;270.25;;;;;;;18.16;100.00;97701.09;5091804;28;20512;-46
2023/10/24 00:23:59;;;;;;;849.33;754.90;;;;;;;17.94;100.00;97673.06;5091785;28;20051;-46
2023/10/24 00:26:25;;;;;;;377.65;339.23;;;;;;;18.33;100.00;97703.38;5091668;28;20092;-46
2023/10/24 00:28:50;;;;;;;796.63;708.67;;;;;;;18.08;100.00;97683.88;5091707;28;20021;-46
2023/10/24 00:31:16;;;;;;;433.45;388.73;;;;;;;18.44;100.00;97683.69;5091528;28;20024;-46
2023/10/24 00:33:42;;;;;;;318.02;283.38;;;;;;;18.19;100.00;97697.91;5093151;28;20036;-46
2023/10/24 00:36:07;;;;;;;428.80;383.48;;;;;;;17.81;100.00;97694.88;5091577;28;20462;-46
2023/10/24 00:38:33;;;;;;;621.53;555.42;;;;;;;17.57;100.00;97705.31;5091266;28;20398;-46
2023/10/24 00:40:59;;;;;;;256.48;228.60;;;;;;;17.44;100.00;97703.19;5092972;28;20038;-46
2023/10/24 00:43:25;;;;;;;440.67;382.80;;;;;;;17.33;100.00;97705.88;5092674;28;20024;-46
2023/10/24 00:45:51;;;;;;;786.50;699.60;;;;;;;17.37;100.00;97711.44;5092679;28;20077;-46
2023/10/24 00:48:17;;;;;;;348.95;312.20;;;;;;;17.47;100.00;97719.38;5074525;28;20020;-46
2023/10/24 00:50:43;;;;;;;758.78;678.20;;;;;;;17.43;100.00;97704.28;5091132;28;20040;-46
2023/10/24 00:53:08;;;;;;;560.38;502.45;;;;;;;17.42;100.00;97713.28;5092589;28;20035;-46
2023/10/24 00:55:38;;;;;;;644.42;574.85;;;;;;;17.42;100.00;97700.03;5091176;28;20632;-46
2023/10/24 00:58:05;;;;;;;514.58;459.35;;;;;;;17.42;100.00;97698.16;5092510;28;20547;-46
2023/10/24 01:00:31;;;;;;;498.45;444.77;;;;;;;17.42;100.00;97706.13;5091161;28;20059;-46
2023/10/24 01:02:57;;;;;;;798.35;703.45;;;;;;;17.56;100.00;97712.44;5092413;28;20429;-46
2023/10/24 01:05:24;;;;;;;1123.35;860.75;;;;;;;17.93;100.00;97723.78;5090996;28;20025;-46
2023/10/24 01:07:49;;;;;;;918.28;806.88;;;;;;;18.51;100.00;97723.22;5091127;28;20397;-46
2023/10/24 01:10:15;;;;;;;953.03;808.58;;;;;;;18.99;100.00;97710.13;5090562;28;20032;-46
2023/10/24 01:12:41;;;;;;;837.42;730.78;;;;;;;19.25;100.00;97715.22;5092261;28;20436;-46
2023/10/24 01:15:07;;;;;;;1272.10;918.35;;;;;;;19.22;100.00;97715.81;5092395;28;20113;-46
2023/10/24 01:17:33;;;;;;;991.50;835.65;;;;;;;19.20;100.00;97718.75;5090807;28;20117;-46
2023/10/24 01:19:58;;;;;;;721.15;644.30;;;;;;;19.39;100.00;97716.16;5092166;28;20052;-46
2023/10/24 01:22:24;;;;;;;1257.13;905.80;;;;;;;19.60;100.00;97707.94;5091942;28;20102;-46
2023/10/24 01:24:51;;;;;;;993.38;807.33;;;;;;;19.39;100.00;97694.88;5092015;28;20030;-46
2023/10/24 01:27:19;;;;;;;1017.22;859.05;;;;;;;19.19;100.00;97687.88;5090745;28;20166;-46
2023/10/24 01:29:44;;;;;;;1146.63;907.57;;;;;;;19.11;100.00;97696.47;5090584;28;20035;-45
2023/10/24 01:32:10;;;;;;;797.67;713.45;;;;;;;19.19;100.00;97697.72;5091929;28;20016;-46
2023/10/24 01:34:36;;;;;;;990.30;814.50;;;;;;;18.83;100.00;97693.50;5091940;28;20023;-46
2023/10/24 01:37:01;;;;;;;924.63;766.30;;;;;;;18.53;100.00;97690.00;5091963;28;20039;-46
2023/10/24 01:39:27;;;;;;;1091.63;843.80;;;;;;;18.33;100.00;97695.44;5090577;28;20052;-46
2023/10/24 01:41:53;;;;;;;716.10;638.08;;;;;;;18.12;100.00;97702.72;5091793;28;20032;-45
2023/10/24 01:44:18;;;;;;;719.45;644.53;;;;;;;17.88;100.00;97698.03;5092084;28;20035;-45
2023/10/24 01:46:44;;;;;;;593.88;529.88;;;;;;;17.70;100.00;97688.00;5091828;28;20020;-45
2023/10/24 01:49:10;;;;;;;865.30;771.17;;;;;;;17.66;100.00;97676.34;5090595;28;20030;-44
2023/10/24 01:51:35;;;;;;;466.40;418.15;;;;;;;17.59;100.00;97692.56;5095883;28;20028;-44
2023/10/24 01:54:01;;;;;;;692.15;621.95;;;;;;;17.43;100.00;97688.38;5095992;28;20050;-44
2023/10/24 01:56:27;;;;;;;1305.07;917.13;;;;;;;17.39;100.00;97677.50;5095954;28;20024;-44
2023/10/24 01:58:52;;;;;;;839.13;727.67;;;;;;;17.39;100.00;97661.59;5094587;28;20024;-44
2023/10/24 02:01:18;;;;;;;844.08;725.03;;;;;;;17.30;100.00;97658.66;5095882;28;20054;-44
2023/10/24 02:03:44;;;;;;;826.45;721.88;;;;;;;17.47;100.00;97689.41;5094561;28;20032;-44
2023/10/24 02:06:09;;;;;;;980.95;803.40;;;;;;;17.37;100.00;97663.72;5095747;28;20016;-44
2023/10/24 02:08:35;;;;;;;900.83;719.53;;;;;;;17.30;100.00;97671.13;5094402;28;20028;-44
2023/10/24 02:11:01;;;;;;;1006.08;776.65;;;;;;;17.19;100.00;97641.22;5095335;28;20044;-44
2023/10/24 02:13:26;;;;;;;1102.90;869.65;;;;;;;17.28;100.00;97650.19;5094272;28;20023;-44
2023/10/24 02:15:53;;;;;;;1357.70;896.50;;;;;;;17.43;100.00;97680.41;5094264;28;20493;-44
2023/10/24 02:18:19;;;;;;;1214.35;879.83;;;;;;;17.37;100.00;97663.72;5096038;28;20426;-44
2023/10/24 02:20:45;;;;;;;937.53;733.47;;;;;;;17.35;100.00;97636.66;5094143;28;20108;-44
2023/10/24 02:23:10;;;;;;;1314.10;922.65;;;;;;;17.24;100.00;97677.50;5095514;28;20099;-44
2023/10/24 02:25:37;;;;;;;1005.58;811.53;;;;;;;17.28;100.00;97695.28;5095279;28;20111;-44
2023/10/24 02:28:03;;;;;;;972.00;821.63;;;;;;;17.44;100.00;97704.00;5094077;28;20157;-44
2023/10/24 02:30:29;;;;;;;1049.78;842.65;;;;;;;17.58;100.00;97720.94;5095189;28;20020;-44
2023/10/24 02:33:00;;;;;;;975.17;786.08;;;;;;;17.56;100.00;97698.41;5093913;28;20123;-45
2023/10/24 02:35:27;;;;;;;1370.28;907.33;;;;;;;17.56;100.00;97675.31;5095218;28;20050;-44
2023/10/24 02:37:53;;;;;;;773.58;664.08;;;;;;;17.70;100.00;97667.56;5093813;28;20493;-45
2023/10/24 02:40:18;;;;;;;1347.30;925.38;;;;;;;17.60;100.00;97678.22;5093835;28;20032;-45
2023/10/24 02:42:44;;;;;;;733.50;657.90;;;;;;;17.82;100.00;97693.00;5093789;28;20078;-45
2023/10/24 02:45:10;;;;;;;530.42;479.35;;;;;;;17.68;100.00;97675.00;5094966;28;20069;-45
2023/10/24 02:47:36;;;;;;;872.10;781.05;;;;;;;17.64;100.00;97673.97;5093722;28;20066;-44
2023/10/24 02:50:02;;;;;;;874.10;772.35;;;;;;;17.71;100.00;97673.69;5094779;28;20063;-44
2023/10/24 02:52:31;;;;;;;154.65;139.52;;;;;;;17.62;100.00;97675.31;5094883;28;20405;-44
2023/10/24 02:54:56;;;;;;;694.10;622.33;;;;;;;17.32;100.00;97688.38;5094803;28;20031;-44
2023/10/24 02:57:22;;;;;;;672.08;608.47;;;;;;;17.25;100.00;97689.72;5094804;28;20106;-44
2023/10/24 02:59:49;;;;;;;783.72;705.65;;;;;;;17.33;100.00;97676.72;5094677;28;20040;-44
2023/10/24 03:02:15;;;;;;;799.13;717.88;;;;;;;17.35;100.00;97657.88;5094668;28;20092;-44
2023/10/24 03:04:40;;;;;;;232.35;211.50;;;;;;;17.16;100.00;97649.69;5094623;28;20482;-44
2023/10/24 03:07:06;;;;;;;740.60;671.90;;;;;;;16.85;100.00;97625.09;5094582;28;20397;-44
2023/10/24 03:09:33;;;;;;;691.40;627.55;;;;;;;17.03;100.00;97631.72;5094509;28;20063;-44
2023/10/24 03:11:59;;;;;;;502.90;456.95;;;;;;;17.09;100.00;97644.66;5092873;28;20101;-44
2023/10/24 03:14:25;;;;;;;510.42;463.05;;;;;;;17.01;100.00;97641.78;5094364;28;20020;-44
2023/10/24 03:16:50;;;;;;;577.97;525.22;;;;;;;16.91;100.00;97638.06;5094373;28;20024;-44
2023/10/24 03:19:16;;;;;;;551.20;502.17;;;;;;;16.96;100.00;97624.81;5093034;28;20032;-44
2023/10/24 03:21:41;;;;;;;531.65;483.80;;;;;;;16.94;100.00;97637.56;5094312;28;20516;-44
2023/10/24 03:24:08;;;;;;;430.17;391.90;;;;;;;17.08;100.00;97655.53;5094260;28;20016;-44
2023/10/24 03:26:33;;;;;;;303.30;276.70;;;;;;;17.02;100.00;97651.31;5094195;28;20034;-44
2023/10/24 03:28:59;;;;;;;447.80;408.40;;;;;;;16.90;100.00;97648.94;5094185;28;20016;-44
2023/10/24 03:31:24;;;;;;;561.50;510.27;;;;;;;17.07;100.00;97643.34;5093985;28;20035;-44
2023/10/24 03:33:50;;;;;;;245.75;223.85;;;;;;;17.36;100.00;97651.50;5094162;28;20020;-44
2023/10/24 03:36:16;;;;;;;413.38;374.23;;;;;;;17.21;100.00;97646.25;5094026;28;20020;-44
2023/10/24 03:38:43;;;;;;;480.23;434.88;;;;;;;17.12;100.00;97644.16;5094002;28;20024;-44
2023/10/24 03:41:08;;;;;;;430.75;390.85;;;;;;;17.17;100.00;97636.16;5075779;28;20028;-44
2023/10/24 03:43:35;;;;;;;482.20;438.58;;;;;;;17.23;100.00;97629.00;5092571;28;20039;-44
2023/10/24 03:46:07;;;;;;;603.28;548.65;;;;;;;17.36;100.00;97623.13;5094147;28;20125;-44
2023/10/24 03:48:33;;;;;;;551.17;503.15;;;;;;;17.54;100.00;97621.72;5093839;28;20472;-44
2023/10/24 03:51:00;;;;;;;485.15;439.90;;;;;;;17.77;100.00;97627.47;5093686;28;20024;-44
2023/10/24 03:53:27;;;;;;;459.40;418.63;;;;;;;17.80;100.00;97631.44;5093776;28;20048;-44
2023/10/24 03:56:00;;;;;;;617.72;562.70;;;;;;;17.85;100.00;97656.13;5093607;28;20111;-44
2023/10/24 03:58:26;;;;;;;615.22;559.83;;;;;;;18.20;100.00;97662.31;5093654;28;20571;-44
2023/10/24 04:00:54;;;;;;;729.20;660.33;;;;;;;18.40;100.00;97642.78;5093543;28;20409;-45
2023/10/24 04:03:20;;;;;;;606.45;549.35;;;;;;;18.15;100.00;97673.78;5092514;28;20020;-45
2023/10/24 04:05:46;;;;;;;590.47;535.08;;;;;;;17.69;100.00;97686.44;5093384;28;20505;-44
2023/10/24 04:08:12;;;;;;;585.28;528.22;;;;;;;17.35;100.00;97693.16;5092464;28;20024;-44
2023/10/24 04:10:38;;;;;;;483.75;438.02;;;;;;;17.14;100.00;97683.63;5093248;28;20501;-45
2023/10/24 04:13:03;;;;;;;626.05;567.72;;;;;;;17.09;100.00;97689.75;5091460;28;20082;-44
2023/10/24 04:15:29;;;;;;;640.72;575.97;;;;;;;17.06;100.00;97697.44;5075058;28;20033;-44
2023/10/24 04:17:55;;;;;;;613.47;555.05;;;;;;;16.89;100.00;97709.09;5093219;28;20020;-45
2023/10/24 04:20:21;;;;;;;350.75;313.48;;;;;;;16.52;100.00;97707.47;5093161;28;20066;-44
2023/10/24 04:22:47;;;;;;;452.67;405.23;;;;;;;16.04;100.00;97712.09;5093125;28;20023;-44
2023/10/24 04:25:13;;;;;;;680.60;609.63;;;;;;;15.83;100.00;97691.91;5093033;28;20028;-44
2023/10/24 04:27:38;;;;;;;543.45;485.35;;;;;;;15.71;100.00;97674.34;5093015;28;20027;-44
2023/10/24 04:30:06;;;;;;;750.88;667.70;;;;;;;15.62;100.00;97681.22;5091637;28;20028;-47
2023/10/24 04:32:32;;;;;;;632.40;567.53;;;;;;;15.72;100.00;97694.50;5091635;28;20517;-47
2023/10/24 04:34:57;;;;;;;806.35;706.28;;;;;;;15.93;100.00;97711.25;5092889;28;20031;-47
2023/10/24 04:37:23;;;;;;;342.45;302.23;;;;;;;15.93;100.00;97705.19;5092896;28;20434;-47
2023/10/24 04:39:49;;;;;;;767.08;682.83;;;;;;;15.90;100.00;97708.34;5074689;28;20604;-46
2023/10/24 04:42:14;;;;;;;788.83;705.20;;;;;;;15.89;100.00;97696.94;5092739;28;20020;-47
2023/10/24 04:44:40;;;;;;;751.03;679.40;;;;;;;16.06;100.00;97694.13;5074519;28;20082;-47
2023/10/24 04:47:06;;;;;;;18.17;16.30;;;;;;;16.21;100.00;97700.50;5092755;28;20078;-47
2023/10/24 04:49:31;;;;;;;17.33;13.88;;;;;;;16.13;100.00;97721.13;5091345;28;20062;-47
2023/10/24 04:51:57;;;;;;;14.82;11.75;;;;;;;15.91;100.00;97718.66;5074384;28;20115;-47
2023/10/24 04:54:23;;;;;;;13.60;11.93;;;;;;;15.90;100.00;97697.78;5092537;28;20036;-46
2023/10/24 04:56:48;;;;;;;19.05;16.85;;;;;;;15.94;100.00;97682.97;5092588;28;20024;-46
2023/10/24 04:59:14;;;;;;;15.02;13.82;;;;;;;15.93;100.00;97684.78;5092506;28;20389;-46
2023/10/24 05:01:40;;;;;;;15.27;13.93;;;;;;;15.87;100.00;97692.97;5092437;28;20028;-46
2023/10/24 05:04:06;;;;;;;15.95;13.73;;;;;;;15.81;100.00;97697.44;5092394;28;20103;-46
2023/10/24 05:06:32;;;;;;;11.93;10.60;;;;;;;15.89;100.00;97699.59;5091351;28;20024;-47
2023/10/24 05:08:57;;;;;;;13.20;11.90;;;;;;;15.71;100.00;97703.47;5091346;28;20531;-46
2023/10/24 05:11:23;;;;;;;7.18;6.45;;;;;;;15.48;100.00;97723.19;5091938;28;20052;-46
2023/10/24 05:13:49;;;;;;;2.40;2.22;;;;;;;15.25;100.00;97719.09;5090980;28;20057;-46
2023/10/24 05:16:15;;;;;;;1.83;1.13;;;;;;;15.14;100.00;97710.28;5092199;28;20020;-46
2023/10/24 05:18:40;;;;;;;8.07;7.18;;;;;;;15.49;100.00;97705.47;5092243;28;20035;-46
2023/10/24 05:21:06;;;;;;;19.90;16.73;;;;;;;15.65;100.00;97709.78;5092142;28;20028;-46
2023/10/24 05:23:32;;;;;;;29.63;23.20;;;;;;;15.90;100.00;97711.00;5091909;28;20478;-47
2023/10/24 05:25:57;;;;;;;32.90;23.92;;;;;;;15.86;100.00;97705.44;5091367;28;20042;-47
2023/10/24 05:28:23;;;;;;;21.73;17.50;;;;;;;15.66;100.00;97710.59;5092005;28;20023;-46
2023/10/24 05:30:49;;;;;;;18.35;13.48;;;;;;;15.39;100.00;97719.41;5091944;28;20027;-46
2023/10/24 05:33:14;;;;;;;8.80;8.00;;;;;;;15.07;100.00;97699.16;5092030;28;20032;-45
2023/10/24 05:35:47;;;;;;;8.90;8.18;;;;;;;14.77;100.00;97710.28;5091957;28;20020;-46
2023/10/24 05:38:13;;;;;;;9.15;8.30;;;;;;;14.69;100.00;97703.59;5091902;28;20020;-46
2023/10/24 05:40:39;;;;;;;4.75;4.35;;;;;;;14.63;100.00;97699.31;5092184;28;20058;-46
2023/10/24 05:43:06;;;;;;;1.63;1.55;;;;;;;14.52;100.00;97687.81;5092493;28;20493;-46
2023/10/24 05:45:32;;;;;;;3.63;3.40;;;;;;;14.56;100.00;97704.78;5091770;28;20099;-47
2023/10/24 05:47:58;;;;;;;7.35;3.83;;;;;;;14.53;100.00;97700.00;5091851;28;20028;-46
2023/10/24 05:50:24;;;;;;;5.82;4.00;;;;;;;14.45;100.00;97710.22;5091958;28;20024;-46
2023/10/24 05:52:50;;;;;;;1.95;1.85;;;;;;;14.36;100.00;97720.41;5091810;28;20490;-46
2023/10/24 05:55:16;;;;;;;1.60;1.50;;;;;;;14.27;100.00;97733.25;5090441;28;20012;-46
2023/10/24 05:57:42;;;;;;;5.53;3.35;;;;;;;14.46;100.00;97731.06;5091809;28;20088;-46
2023/10/24 06:00:08;;;;;;;5.60;5.18;;;;;;;14.56;100.00;97728.56;5090418;28;20568;-46
2023/10/24 06:02:34;;;;;;;4.07;3.70;;;;;;;14.70;100.00;97721.03;5091661;28;20505;-46
2023/10/24 06:05:00;;;;;;;9.27;8.50;;;;;;;15.03;100.00;97724.47;5090555;28;20082;-46
2023/10/24 06:07:25;;;;;;;29.67;26.73;;;;;;;15.45;100.00;97728.19;5091682;28;20060;-46
2023/10/24 06:09:51;;;;;;;37.42;33.78;;;;;;;15.59;100.00;97724.03;5090238;28;20493;-46
2023/10/24 06:12:17;;;;;;;39.33;30.63;;;;;;;15.82;100.00;97722.09;5091250;28;20076;-46
2023/10/24 06:14:43;;;;;;;34.67;31.02;;;;;;;15.85;100.00;97732.91;5091608;28;20529;-46
2023/10/24 06:17:09;;;;;;;39.65;33.17;;;;;;;15.93;100.00;97737.72;5091481;28;20024;-46
2023/10/24 06:19:39;;;;;;;41.38;35.13;;;;;;;15.93;100.00;97745.66;5091502;28;20397;-47
2023/10/24 06:22:06;;;;;;;25.77;23.00;;;;;;;15.90;100.00;97756.78;5090255;28;20113;-46
2023/10/24 06:24:31;;;;;;;19.13;15.73;;;;;;;15.68;100.00;97756.88;5091549;28;20025;-47
2023/10/24 06:26:57;;;;;;;11.00;9.95;;;;;;;15.33;100.00;97774.13;5090478;28;20024;-47
2023/10/24 06:29:23;;;;;;;6.07;5.47;;;;;;;15.06;100.00;97762.81;5090233;28;20032;-46
2023/10/24 06:31:48;;;;;;;6.30;4.40;;;;;;;14.80;100.00;97757.31;5090069;28;20434;-46
2023/10/24 06:34:14;;;;;;;3.50;3.25;;;;;;;14.73;100.00;97738.22;5090466;28;20028;-46
2023/10/24 06:36:40;;;;;;;3.22;3.03;;;;;;;14.83;100.00;97746.25;5093733;28;20482;-46
2023/10/24 06:39:06;;;;;;;1.70;1.63;;;;;;;14.85;100.00;97759.19;5095186;28;20106;-47
2023/10/24 06:41:32;;;;;;;1.33;1.30;;;;;;;14.89;100.00;97765.56;5095199;28;20047;-47
2023/10/24 06:43:58;;;;;;;3.20;2.92;;;;;;;15.13;100.00;97774.78;5095181;28;20446;-46
2023/10/24 06:46:24;;;;;;;3.80;3.53;;;;;;;15.48;100.00;97788.50;5095035;28;20052;-46
2023/10/24 06:48:50;;;;;;;1.38;1.27;;;;;;;15.58;100.00;97793.88;5094964;28;20089;-46
2023/10/24 06:51:16;;;;;;;1.27;1.23;;;;;;;15.61;100.00;97811.84;5094901;28;20060;-46
2023/10/24 06:53:42;;;;;;;2.60;2.30;;;;;;;15.73;100.00;97798.47;5093700;28;20477;-47
2023/10/24 06:56:08;;;;;;;1.65;1.58;;;;;;;15.90;100.00;97808.91;5093520;28;20428;-46
2023/10/24 06:58:34;;;;;;;0.63;0.60;;;;;;;15.88;100.00;97805.72;5094846;28;20110;-46
2023/10/24 07:00:59;;;;;;;0.10;0.10;;;;;;;16.01;100.00;97807.09;5095028;28;20030;-47
2023/10/24 07:03:26;;;;;;;0.00;0.00;;;;;;;15.71;100.00;97803.97;5093572;28;20023;-47
2023/10/24 07:05:52;;;;;;;0.00;0.00;;;;;;;15.49;100.00;97813.88;5094744;28;20078;-47
2023/10/24 07:08:18;;;;;;;0.00;0.00;;;;;;;15.41;100.00;97822.28;5094662;28;20025;-47
2023/10/24 07:10:45;;;;;;;0.20;0.20;;;;;;;15.42;100.00;97826.53;5092929;28;20447;-47
2023/10/24 07:13:11;;;;;;;0.00;0.00;;;;;;;15.32;100.00;97821.97;5093249;28;20084;-47
2023/10/24 07:15:38;;;;;;;0.00;0.00;;;;;;;15.25;100.00;97822.19;5094537;28;20024;-47
2023/10/24 07:18:05;;;;;;;0.47;0.47;;;;;;;15.24;100.00;97814.50;5093137;28;20031;-47
2023/10/24 07:20:34;;;;;;;2.22;1.75;;;;;;;15.07;100.00;97822.53;5093034;28;20517;-47
2023/10/24 07:23:00;;;;;;;4.50;2.83;;;;;;;15.16;100.00;97821.03;5076320;28;20390;-47
2023/10/24 07:25:26;;;;;;;2.83;1.30;;;;;;;14.99;100.00;97823.81;5093239;28;20028;-47
2023/10/24 07:27:51;;;;;;;2.85;2.35;;;;;;;14.85;100.00;97826.03;5094290;28;20020;-47
2023/10/24 07:30:17;;;;;;;5.60;2.50;;;;;;;14.88;100.00;97825.53;5092789;28;20032;-47
2023/10/24 07:32:43;;;;;;;3.00;2.80;;;;;;;14.75;100.00;97833.88;5093223;28;20040;-47
2023/10/24 07:35:08;;;;;;;1.10;1.10;;;;;;;14.58;100.00;97836.56;5092793;28;20028;-47
2023/10/24 07:37:36;;;;;;;3.28;3.08;;;;;;;14.56;100.00;97836.00;5094123;28;20024;-47
2023/10/24 07:40:03;;;;;;;6.75;6.00;;;;;;;14.78;100.00;97836.00;5094069;28;20031;-47
2023/10/24 07:42:28;;;;;;;2.40;2.28;;;;;;;14.91;100.00;97834.78;5094010;28;20020;-47
2023/10/24 07:44:56;;;;;;;6.60;4.65;;;;;;;15.17;100.00;97835.81;5076099;28;20035;-47
2023/10/24 07:47:22;;;;;;;4.18;2.90;;;;;;;14.86;100.00;97835.53;5091667;28;20379;-47
2023/10/24 07:49:48;;;;;;;4.78;3.08;;;;;;;14.53;100.00;97836.50;5093884;28;20024;-47
2023/10/24 07:52:13;;;;;;;1.23;1.23;;;;;;;14.41;100.00;97835.78;5092365;28;20119;-47
2023/10/24 07:54:39;;;;;;;1.00;1.00;;;;;;;14.55;100.00;97829.91;5092464;28;20024;-47
2023/10/24 07:57:05;;;;;;;4.80;3.92;;;;;;;14.80;100.00;97828.63;5093703;28;20027;-47
2023/10/24 07:59:30;;;;;;;9.07;8.13;;;;;;;15.33;100.00;97819.06;5093702;28;20034;-47
2023/10/24 08:01:56;;;;;;;12.32;10.82;;;;;;;15.59;100.00;97819.25;5093561;28;20043;-47
2023/10/24 08:04:22;;;;;;;21.02;12.57;;;;;;;15.62;100.00;97821.41;5093581;28;20109;-47
2023/10/24 08:06:48;;;;;;;7.75;7.05;;;;;;;15.56;100.00;97828.50;5093462;28;20095;-47
2023/10/24 08:09:13;;;;;;;6.25;5.65;;;;;;;15.53;100.00;97829.00;5092177;28;20100;-47
2023/10/24 08:11:40;;;;;;;3.85;3.58;;;;;;;15.34;100.00;97830.44;5093088;28;20106;-47
2023/10/24 08:14:06;;;;;;;3.95;3.60;;;;;;;14.97;100.00;97836.47;5093334;28;20031;-47
2023/10/24 08:16:31;;;;;;;5.78;2.97;;;;;;;14.79;100.00;97850.81;5093334;28;20406;-47
2023/10/24 08:18:58;;;;;;;1.85;1.60;;;;;;;14.65;100.00;97847.75;5093258;28;20062;-47
2023/10/24 08:21:23;;;;;;;1.40;1.33;;;;;;;14.69;100.00;97854.13;5093491;28;20070;-47
2023/10/24 08:23:49;;;;;;;3.58;2.15;;;;;;;14.76;100.00;97840.72;5091904;28;20519;-47
2023/10/24 08:26:16;;;;;;;5.10;3.08;;;;;;;14.79;100.00;97842.88;5093097;28;20054;-47
2023/10/24 08:28:41;;;;;;;1.77;1.35;;;;;;;14.75;100.00;97839.94;5093058;28;20516;-48
2023/10/24 08:31:07;;;;;;;2.85;1.98;;;;;;;14.74;100.00;97840.97;5092963;28;20025;-47
2023/10/24 08:33:33;;;;;;;0.82;0.82;;;;;;;14.80;100.00;97841.03;5091658;28;20466;-47
2023/10/24 08:35:59;;;;;;;1.15;1.02;;;;;;;14.80;100.00;97841.03;5092903;28;20028;-47
2023/10/24 08:38:24;;;;;;;1.05;1.05;;;;;;;14.90;100.00;97849.06;5091861;28;20109;-47
2023/10/24 08:40:50;;;;;;;1.75;1.63;;;;;;;14.91;100.00;97842.72;5091568;28;20123;-46
2023/10/24 08:43:18;;;;;;;2.47;2.38;;;;;;;14.90;100.00;97851.69;5092751;28;20020;-47
2023/10/24 08:45:45;;;;;;;1.38;1.30;;;;;;;14.91;100.00;97846.19;5091883;28;20385;-47
2023/10/24 08:48:11;;;;;;;2.65;2.45;;;;;;;14.82;100.00;97845.00;5092705;28;20077;-47
2023/10/24 08:50:37;;;;;;;8.27;7.53;;;;;;;15.26;100.00;97830.91;5092610;28;20028;-46
2023/10/24 08:53:02;;;;;;;18.92;15.73;;;;;;;15.63;100.00;97833.56;5092618;28;20024;-46
2023/10/24 08:55:29;;;;;;;12.93;11.63;;;;;;;15.85;100.00;97833.47;5092567;28;20050;-46
2023/10/24 08:57:59;;;;;;;26.90;23.08;;;;;;;15.94;100.00;97831.16;5092567;28;20028;-46
2023/10/24 09:00:27;;;;;;;18.30;16.40;;;;;;;15.92;100.00;97820.03;5092334;28;20028;-46
2023/10/24 09:02:55;;;;;;;22.48;20.27;;;;;;;15.94;100.00;97834.59;5091314;28;20027;-46
2023/10/24 09:05:27;;;;;;;45.05;24.00;;;;;;;16.05;100.00;97835.44;5091095;28;20032;-46
2023/10/24 09:07:54;;;;;;;24.75;21.27;;;;;;;16.11;100.00;97829.09;5091270;28;20081;-45
2023/10/24 09:10:20;;;;;;;22.30;16.88;;;;;;;16.09;100.00;97841.81;5090942;28;20035;-45
2023/10/24 09:12:46;;;;;;;17.27;14.13;;;;;;;16.08;100.00;97837.59;5092154;28;20063;-46
2023/10/24 09:15:11;;;;;;;7.47;6.45;;;;;;;15.85;100.00;97844.03;5092201;28;20478;-45
2023/10/24 09:17:37;;;;;;;2.22;2.03;;;;;;;15.49;100.00;97843.78;5092149;28;20047;-45
2023/10/24 09:20:05;;;;;;;2.13;1.98;;;;;;;14.95;100.00;97844.63;5092472;28;20028;-45
2023/10/24 09:22:31;;;;;;;0.85;0.85;;;;;;;14.55;100.00;97839.69;5090901;28;20031;-45
2023/10/24 09:24:58;;;;;;;0.10;0.10;;;;;;;14.27;100.00;97843.31;5092153;28;20023;-45
2023/10/24 09:27:24;;;;;;;0.00;0.00;;;;;;;14.01;100.00;97842.97;5092049;28;20031;-46
2023/10/24 09:29:51;;;;;;;0.00;0.00;;;;;;;13.80;100.00;97841.88;5092393;28;20020;-45
2023/10/24 09:32:18;;;;;;;0.00;0.00;;;;;;;13.65;100.00;97847.72;5090687;28;20031;-45
2023/10/24 09:34:45;;;;;;;0.00;0.00;;;;;;;13.61;100.00;97856.34;5092044;28;20085;-45
2023/10/24 09:37:13;;;;;;;0.10;0.10;;;;;;;13.61;100.00;97857.16;5090639;28;20020;-45
2023/10/24 09:39:56;;;;;;;1.38;1.27;;;;;;;13.58;100.00;97854.97;5090956;28;20016;-45
2023/10/24 09:42:27;;;;;;;0.10;0.10;;;;;;;13.54;100.00;97851.22;5090666;28;20383;-45
2023/10/24 09:45:04;;;;;;;1.13;0.95;;;;;;;13.46;100.00;97852.44;5090845;28;20026;-45
2023/10/24 09:47:32;;;;;;;1.70;1.60;;;;;;;13.36;100.00;97866.25;5091899;28;20028;-45
2023/10/24 09:49:58;;;;;;;0.00;0.00;;;;;;;13.29;100.00;97856.88;5091868;28;20521;-45
2023/10/24 09:52:26;;;;;;;0.65;0.55;;;;;;;13.56;100.00;97859.69;5091685;28;20028;-45
2023/10/24 09:54:52;;;;;;;0.00;0.00;;;;;;;14.13;100.00;97859.47;5091756;28;20046;-45
2023/10/24 09:57:22;;;;;;;0.10;0.10;;;;;;;14.21;100.00;97853.00;5091989;28;20024;-45
2023/10/24 09:59:55;;;;;;;0.30;0.30;;;;;;;14.53;100.00;97850.47;5073970;28;20064;-45
2023/10/24 10:02:23;;;;;;;0.00;0.00;;;;;;;14.86;100.00;97846.13;5092128;28;20039;-45
2023/10/24 10:04:53;;;;;;;0.00;0.00;;;;;;;15.20;100.00;97848.56;5090464;28;20093;-45
2023/10/24 10:07:20;;;;;;;0.10;0.10;;;;;;;15.41;100.00;97857.44;5090386;28;20020;-45
2023/10/24 10:09:50;;;;;;;0.10;0.10;;;;;;;15.09;100.00;97865.34;5091709;28;20040;-45
2023/10/24 10:12:18;;;;;;;0.00;0.00;;;;;;;14.51;100.00;97871.06;5093595;28;20093;-45
2023/10/24 10:14:56;;;;;;;0.00;0.00;;;;;;;14.05;100.00;97865.19;5095642;28;20103;-46
2023/10/24 10:17:51;;;;;;;0.17;0.17;;;;;;;13.72;100.00;97864.19;5095699;28;20103;-45
2023/10/24 10:20:30;;;;;;;1.23;0.93;;;;;;;13.62;100.00;97864.00;5095591;28;20040;-45
2023/10/24 10:23:14;;;;;;;0.82;0.82;;;;;;;13.61;100.00;97857.16;5095524;28;20103;-45
2023/10/24 10:25:58;;;;;;;0.88;0.88;;;;;;;13.73;100.00;97846.53;5095443;28;20035;-45
2023/10/24 10:28:49;;;;;;;2.63;2.45;;;;;;;14.34;100.00;97846.53;5095477;28;20508;-45
2023/10/24 10:31:25;;;;;;;4.68;3.58;;;;;;;14.75;100.00;97855.00;5094006;28;20032;-45
2023/10/24 10:33:54;;;;;;;4.45;3.20;;;;;;;15.11;100.00;97857.97;5095635;28;20097;-46
2023/10/24 10:36:20;;;;;;;1.10;1.02;;;;;;;15.01;100.00;97858.69;5093972;28;20034;-46
2023/10/24 10:38:49;;;;;;;1.50;1.40;;;;;;;14.71;100.00;97857.31;5095253;28;20024;-45
2023/10/24 10:41:23;;;;;;;0.00;0.00;;;;;;;14.52;100.00;97858.66;5060496;28;20067;-45
2023/10/24 10:43:58;;;;;;;0.00;0.00;;;;;;;14.35;100.00;97858.72;5095249;28;20028;-46
2023/10/24 10:46:28;;;;;;;0.00;0.00;;;;;;;14.34;100.00;97857.09;5095105;28;20036;-46
2023/10/24 10:49:06;;;;;;;0.03;0.03;;;;;;;14.75;100.00;97850.50;5095065;28;20057;-46
2023/10/24 10:51:33;;;;;;;0.00;0.00;;;;;;;14.80;100.00;97849.75;5094957;28;20510;-46
2023/10/24 10:54:06;;;;;;;0.10;0.10;;;;;;;15.21;100.00;97849.34;5094940;28;20546;-45
2023/10/24 10:56:35;;;;;;;1.40;1.30;;;;;;;15.42;100.00;97842.41;5094910;28;20515;-46
2023/10/24 10:59:07;;;;;;;0.35;0.35;;;;;;;15.40;100.00;97853.22;5093568;28;20050;-46
2023/10/24 11:01:41;;;;;;;0.20;0.20;;;;;;;15.38;100.00;97855.31;5093488;28;20415;-46
2023/10/24 11:04:14;;;;;;;0.80;0.40;;;;;;;15.17;100.00;97856.97;5094839;28;20020;-47
2023/10/24 11:06:54;;;;;;;0.00;0.00;;;;;;;15.46;100.00;97852.22;5094726;28;20103;-47
2023/10/24 11:09:21;;;;;;;2.92;1.23;;;;;;;15.67;100.00;97845.22;5094716;28;20031;-47